createdAt,value
2023-01-17T00:02:31.096Z,80.53
2023-01-17T00:07:47.829Z,81.17
2023-01-17T00:12:49.189Z,82.43
2023-01-17T00:17:47.296Z,81.51
2023-01-17T00:23:03.847Z,81.51
2023-01-17T00:28:00.513Z,81.87
2023-01-17T00:32:57.358Z,83.77
2023-01-17T00:38:05.709Z,83.08
2023-01-17T00:43:21.224Z,82.47
2023-01-17T00:48:36.213Z,82.52
2023-01-17T00:53:53.083Z,82.72
2023-01-17T00:59:07.997Z,82.64
2023-01-17T01:04:23.067Z,81.41
2023-01-17T01:09:39.883Z,80.64
2023-01-17T01:14:54.905Z,79.88
2023-01-17T01:20:09.828Z,79.08
2023-01-17T01:25:27.047Z,77.95
2023-01-17T01:30:42.532Z,77.18
2023-01-17T01:35:42.007Z,78.92
2023-01-17T01:40:44.726Z,78.20
2023-01-17T01:45:46.074Z,79.57
2023-01-17T01:50:44.158Z,79.70
2023-01-17T01:55:43.457Z,79.73
2023-01-17T02:00:42.984Z,79.39
2023-01-17T02:05:42.559Z,79.03
2023-01-17T02:10:41.192Z,79.73
2023-01-17T02:15:43.255Z,79.95
2023-01-17T02:20:57.125Z,79.63
2023-01-17T02:26:10.362Z,80.20
2023-01-17T02:31:14.633Z,80.09
2023-01-17T02:36:15.795Z,80.30
2023-01-17T02:41:17.612Z,79.66
2023-01-17T02:46:16.804Z,79.66
2023-01-17T02:51:28.219Z,79.51
2023-01-17T02:56:33.497Z,78.99
2023-01-17T03:01:39.108Z,78.23
2023-01-17T03:06:39.049Z,77.84
2023-01-17T03:11:37.014Z,78.11
2023-01-17T03:16:36.584Z,78.20
2023-01-17T03:21:34.424Z,78.08
2023-01-17T03:26:32.294Z,78.11
2023-01-17T03:31:30.112Z,78.54
2023-01-17T03:36:29.363Z,77.63
2023-01-17T03:41:27.192Z,77.78
2023-01-17T03:46:26.494Z,77.16
2023-01-17T03:51:24.342Z,76.35
2023-01-17T03:56:23.523Z,75.56
2023-01-17T04:01:21.416Z,76.35
2023-01-17T04:06:19.277Z,77.16
2023-01-17T04:11:17.129Z,77.27
2023-01-17T04:16:17.373Z,76.89
2023-01-17T04:21:15.230Z,76.22
2023-01-17T04:26:13.115Z,75.26
2023-01-17T04:31:15.282Z,72.68
2023-01-17T04:36:14.547Z,70.35
2023-01-17T04:41:12.393Z,70.08
2023-01-17T04:46:11.243Z,69.87
2023-01-17T04:51:09.205Z,69.87
2023-01-17T04:56:08.843Z,69.86
2023-01-17T05:01:08.143Z,70.04
2023-01-17T05:06:06.170Z,70.38
2023-01-17T05:11:04.024Z,70.35
2023-01-17T05:16:03.280Z,69.99
2023-01-17T05:21:04.562Z,70.13
2023-01-17T05:26:02.456Z,70.25
2023-01-17T05:31:00.330Z,70.30
2023-01-17T05:35:59.575Z,68.89
2023-01-17T05:40:59.877Z,68.19
2023-01-17T05:45:57.821Z,68.80
2023-01-17T05:50:55.654Z,71.56
2023-01-17T05:55:55.096Z,72.92
2023-01-17T06:01:01.835Z,73.96
2023-01-17T06:05:59.754Z,74.06
2023-01-17T06:11:03.423Z,74.11
2023-01-17T06:16:04.927Z,73.81
2023-01-17T06:21:06.912Z,74.18
2023-01-17T06:26:08.490Z,74.95
2023-01-17T06:31:07.013Z,75.22
2023-01-17T06:36:05.231Z,76.20
2023-01-17T06:41:09.748Z,78.00
2023-01-17T06:46:07.554Z,77.67
2023-01-17T06:51:19.536Z,76.25
2023-01-17T06:56:18.847Z,75.64
2023-01-17T07:01:18.514Z,76.97
2023-01-17T07:06:16.515Z,78.02
2023-01-17T07:11:18.774Z,77.66
2023-01-17T07:16:19.342Z,77.22
2023-01-17T07:21:20.040Z,77.44
2023-01-17T07:26:19.519Z,77.31
2023-01-17T07:31:17.375Z,77.60
2023-01-17T07:36:17.764Z,75.33
2023-01-17T07:41:19.213Z,76.75
2023-01-17T07:46:18.568Z,76.89
2023-01-17T07:51:17.951Z,74.58
2023-01-17T07:56:18.120Z,74.36
2023-01-17T08:01:17.847Z,75.23
2023-01-17T08:06:19.799Z,76.01
2023-01-17T08:11:17.882Z,75.06
2023-01-17T08:16:24.724Z,74.60
2023-01-17T08:21:25.909Z,70.71
2023-01-17T08:26:24.000Z,70.11
2023-01-17T08:31:25.789Z,65.87
2023-01-17T08:36:26.432Z,66.53
2023-01-17T08:41:27.542Z,62.89
2023-01-17T08:46:32.143Z,64.54
2023-01-17T08:51:37.991Z,63.86
2023-01-17T08:56:36.169Z,63.69
2023-01-17T09:01:41.921Z,63.30
2023-01-17T09:06:42.525Z,62.02
2023-01-17T09:11:41.191Z,59.01
2023-01-17T09:16:39.131Z,58.12
2023-01-17T09:21:36.959Z,55.25
2023-01-17T09:26:36.218Z,51.13
2023-01-17T09:31:34.128Z,48.34
2023-01-17T09:36:33.966Z,47.26
2023-01-17T09:41:32.904Z,44.37
2023-01-17T09:46:33.437Z,40.95
2023-01-17T09:51:31.478Z,41.30
2023-01-17T09:56:31.534Z,41.38
2023-01-17T10:01:33.611Z,40.90
2023-01-17T10:06:44.327Z,41.73
2023-01-17T10:11:57.031Z,41.64
2023-01-17T10:16:59.467Z,42.51
2023-01-17T10:22:10.252Z,41.81
2023-01-17T10:27:15.851Z,41.03
2023-01-17T10:32:13.961Z,41.77
2023-01-17T10:37:17.641Z,40.22
2023-01-17T10:42:20.243Z,37.81
2023-01-17T10:47:21.373Z,37.36
2023-01-17T10:52:24.912Z,40.03
2023-01-17T10:57:23.532Z,39.29
2023-01-17T11:02:24.731Z,38.31
2023-01-17T11:07:25.447Z,40.47
2023-01-17T11:12:29.096Z,39.74
2023-01-17T11:17:27.865Z,39.12
2023-01-17T11:22:27.209Z,36.87
2023-01-17T11:27:25.876Z,37.16
2023-01-17T11:32:32.261Z,36.40
2023-01-17T11:37:31.737Z,35.16
2023-01-17T11:42:34.494Z,36.17
2023-01-17T11:47:32.349Z,37.21
2023-01-17T11:52:37.570Z,39.33
2023-01-17T11:57:37.149Z,37.47
2023-01-17T12:02:39.096Z,37.76
2023-01-17T12:07:46.597Z,37.10
2023-01-17T12:13:09.552Z,38.29
2023-01-17T12:18:16.255Z,38.49
2023-01-17T12:23:27.840Z,36.88
2023-01-17T12:28:38.136Z,39.41
2023-01-17T12:33:39.980Z,40.96
2023-01-17T12:38:40.498Z,41.74
2023-01-17T12:43:41.090Z,41.71
2023-01-17T12:48:39.594Z,41.59
2023-01-17T12:53:41.791Z,41.21
2023-01-17T12:58:43.558Z,40.97
2023-01-17T13:03:46.860Z,43.06
2023-01-17T13:08:49.926Z,43.38
2023-01-17T13:13:51.454Z,44.56
2023-01-17T13:18:49.847Z,45.90
2023-01-17T13:23:55.952Z,46.72
2023-01-17T13:28:57.112Z,47.25
2023-01-17T13:34:12.523Z,48.04
2023-01-17T13:39:37.838Z,47.97
2023-01-17T13:44:35.765Z,47.72
2023-01-17T13:49:35.308Z,47.82
2023-01-17T13:54:34.635Z,48.85
2023-01-17T13:59:32.514Z,49.50
2023-01-17T14:04:48.258Z,49.59
2023-01-17T14:09:50.047Z,49.98
2023-01-17T14:14:49.952Z,50.06
2023-01-17T14:19:49.456Z,50.99
2023-01-17T14:25:00.175Z,51.87
2023-01-17T14:29:59.556Z,51.81
2023-01-17T14:34:58.340Z,52.07
2023-01-17T14:39:56.561Z,51.23
2023-01-17T14:45:00.583Z,51.70
2023-01-17T14:50:10.320Z,51.38
2023-01-17T14:55:15.674Z,51.31
2023-01-17T15:00:19.000Z,51.54
2023-01-17T15:05:17.871Z,52.04
2023-01-17T15:10:16.711Z,52.17
2023-01-17T15:15:33.031Z,53.10
2023-01-17T15:20:31.332Z,53.01
2023-01-17T15:25:29.252Z,53.58
2023-01-17T15:30:27.157Z,53.32
2023-01-17T15:35:28.387Z,53.30
2023-01-17T15:40:28.346Z,52.92
2023-01-17T15:45:30.277Z,52.90
2023-01-17T15:50:31.364Z,53.97
2023-01-17T15:55:31.735Z,54.00
2023-01-17T16:00:37.537Z,54.33
2023-01-17T16:05:43.822Z,55.46
2023-01-17T16:10:42.018Z,55.18
2023-01-17T16:15:41.443Z,55.17
2023-01-17T16:20:42.983Z,55.77
2023-01-17T16:25:40.926Z,55.25
2023-01-17T16:30:39.048Z,54.72
2023-01-17T16:35:36.992Z,54.85
2023-01-17T16:40:43.968Z,54.73
2023-01-17T16:45:43.073Z,54.74
2023-01-17T16:50:42.106Z,54.37
2023-01-17T16:55:42.285Z,54.53
2023-01-17T17:00:41.035Z,55.70
2023-01-17T17:05:38.876Z,55.52
2023-01-17T17:10:36.945Z,55.35
2023-01-17T17:15:36.352Z,54.41
2023-01-17T17:20:34.218Z,54.71
2023-01-17T17:25:32.110Z,55.73
2023-01-17T17:30:31.333Z,54.80
2023-01-17T17:35:30.635Z,54.64
2023-01-17T17:40:28.455Z,55.06
2023-01-17T17:45:26.447Z,56.54
2023-01-17T17:50:24.335Z,57.65
2023-01-17T17:55:24.135Z,57.96
2023-01-17T18:00:23.202Z,57.87
2023-01-17T18:05:21.172Z,58.25
2023-01-17T18:10:19.145Z,58.15
2023-01-17T18:15:18.656Z,58.36
2023-01-17T18:20:16.910Z,59.10
2023-01-17T18:25:14.867Z,59.51
2023-01-17T18:30:13.476Z,59.89
2023-01-17T18:35:12.796Z,60.44
2023-01-17T18:40:11.709Z,60.79
2023-01-17T18:45:10.043Z,60.88
2023-01-17T18:50:08.726Z,61.17
2023-01-17T18:55:08.394Z,61.12
2023-01-17T19:00:07.713Z,60.95
2023-01-17T19:05:08.678Z,61.21
2023-01-17T19:10:08.756Z,61.07
2023-01-17T19:15:07.099Z,61.19
2023-01-17T19:20:07.160Z,61.27
2023-01-17T19:25:05.448Z,61.03
2023-01-17T19:30:05.049Z,61.00
2023-01-17T19:35:02.975Z,61.13
2023-01-17T19:40:00.956Z,61.42
2023-01-17T19:44:58.920Z,61.56
2023-01-17T19:49:58.226Z,61.85
2023-01-17T19:54:56.058Z,61.86
2023-01-17T19:59:56.073Z,62.04
2023-01-17T20:04:53.987Z,61.91
2023-01-17T20:09:53.270Z,62.33
2023-01-17T20:14:52.132Z,62.47
2023-01-17T20:19:52.189Z,62.23
2023-01-17T20:24:52.830Z,62.29
2023-01-17T20:29:52.097Z,62.08
2023-01-17T20:34:50.766Z,61.87
2023-01-17T20:39:48.621Z,61.50
2023-01-17T20:44:49.334Z,62.00
2023-01-17T20:49:48.807Z,61.73
2023-01-17T20:54:48.609Z,61.05
2023-01-17T20:59:48.399Z,61.03
2023-01-17T21:04:46.299Z,61.03
2023-01-17T21:09:45.553Z,60.85
2023-01-17T21:14:43.358Z,60.47
2023-01-17T21:19:41.612Z,61.03
2023-01-17T21:24:41.299Z,61.10
2023-01-17T21:29:57.128Z,62.20
2023-01-17T21:34:55.841Z,62.16
2023-01-17T21:39:54.986Z,61.88
2023-01-17T21:44:55.850Z,61.39
2023-01-17T21:49:53.777Z,61.16
2023-01-17T21:55:08.889Z,61.82
2023-01-17T22:00:18.698Z,61.74
2023-01-17T22:05:22.921Z,62.06
2023-01-17T22:10:21.357Z,62.23
2023-01-17T22:15:20.600Z,63.21
2023-01-17T22:20:20.934Z,62.70
2023-01-17T22:25:19.022Z,63.25
2023-01-17T22:30:17.003Z,64.32
2023-01-17T22:35:16.411Z,64.84
2023-01-17T22:40:14.442Z,65.02
2023-01-17T22:45:12.778Z,65.21
2023-01-17T22:50:11.659Z,65.68
2023-01-17T22:55:12.201Z,65.18
2023-01-17T23:00:14.731Z,64.56
2023-01-17T23:05:12.767Z,64.34
2023-01-17T23:10:34.194Z,63.77
2023-01-17T23:15:51.566Z,63.55
2023-01-17T23:20:49.454Z,63.07
2023-01-17T23:25:48.693Z,62.35
2023-01-17T23:30:47.979Z,62.16
2023-01-17T23:35:47.091Z,61.64
2023-01-17T23:41:05.685Z,61.85
2023-01-17T23:46:06.225Z,61.41
2023-01-17T23:51:15.180Z,61.72
2023-01-17T23:56:15.626Z,62.04
